Terminal Aerodrome Forecast
Issued by NWS

Home | Current Version | Previous Version | Text Only | Print | Product List | Glossary On
Versions: 1 2 3 4 5 6 7 8 9 10 11 12 13 14 15 16
361
FTUS43 KEAX 200451 AAF
TAFSTJ
TAF AMD
KSTJ 200451Z 2005/2024 08012KT 6SM RA BR OVC006
     FM200800 09011KT 6SM SHRA BR OVC010 WS020/16035KT
     FM201100 10007KT P6SM OVC010
     FM201300 14006KT P6SM OVC003
     FM201600 25008KT P6SM OVC008
     FM201900 27011KT P6SM BKN035=

USA.gov is the U.S. government's official web portal to all federal, state and local government web resources and services.